Time;durP1;ratioP1;P1;durP2;ratioP2;P2;SDS_P1;SDS_P2;PMS_P1;PMS_P2;Temp;Humidity;BMP_temperature;BMP_pressure;BME280_temperature;BME280_humidity;BME280_pressure;Samples;Min_cycle;Max_cycle;Signal;HPM_P1;HPM_P2
2023/08/03 00:00:25;;;;;;;4.10;1.58;;;;;;;;;;4894681;29;20036;-57
2023/08/03 00:02:51;;;;;;;4.05;1.40;;;;;;;;;;4882541;29;20044;-58
2023/08/03 00:05:19;;;;;;;4.22;1.38;;;;;;;;;;4879284;29;20044;-59
2023/08/03 00:07:45;;;;;;;5.10;1.60;;;;;;;;;;4894875;29;20048;-59
2023/08/03 00:10:10;;;;;;;3.20;1.33;;;;;;;;;;4894459;29;20033;-58
2023/08/03 00:12:36;;;;;;;4.00;1.35;;;;;;;;;;4881708;29;20037;-58
2023/08/03 00:15:02;;;;;;;7.22;1.80;;;;;;;;;;4896354;29;20534;-59
2023/08/03 00:17:27;;;;;;;6.18;1.48;;;;;;;;;;4897903;29;20037;-58
2023/08/03 00:19:52;;;;;;;5.25;1.40;;;;;;;;;;4896211;29;20493;-60
2023/08/03 00:22:18;;;;;;;2.72;1.30;;;;;;;;;;4894938;29;20045;-59
2023/08/03 00:24:43;;;;;;;2.90;1.70;;;;;;;;;;4881580;29;20039;-59
2023/08/03 00:27:09;;;;;;;3.42;1.67;;;;;;;;;;4895540;29;20037;-60
2023/08/03 00:29:34;;;;;;;5.80;1.60;;;;;;;;;;4895350;29;20041;-58
2023/08/03 00:32:00;;;;;;;8.20;1.30;;;;;;;;;;4883197;29;20386;-60
2023/08/03 00:34:26;;;;;;;5.03;1.85;;;;;;;;;;4885828;29;20029;-59
2023/08/03 00:36:51;;;;;;;5.13;1.50;;;;;;;;;;4883162;29;20104;-59
2023/08/03 00:39:17;;;;;;;4.93;1.85;;;;;;;;;;4891801;29;20545;-60
2023/08/03 00:41:42;;;;;;;3.92;1.52;;;;;;;;;;4896468;29;20041;-59
2023/08/03 00:44:08;;;;;;;2.63;1.08;;;;;;;;;;4893606;29;20036;-60
2023/08/03 00:46:33;;;;;;;3.22;1.70;;;;;;;;;;4897214;29;20409;-60
2023/08/03 00:48:59;;;;;;;3.15;1.42;;;;;;;;;;4895961;29;20028;-61
2023/08/03 00:51:25;;;;;;;3.92;1.55;;;;;;;;;;4897728;29;20040;-59
2023/08/03 00:53:50;;;;;;;3.50;1.88;;;;;;;;;;4897659;29;20040;-59
2023/08/03 00:56:16;;;;;;;6.18;1.77;;;;;;;;;;4901711;29;20213;-60
2023/08/03 00:58:42;;;;;;;2.72;1.38;;;;;;;;;;4911421;29;20044;-59
2023/08/03 01:01:08;;;;;;;2.35;1.30;;;;;;;;;;4896787;29;20060;-59
2023/08/03 01:03:33;;;;;;;2.42;1.45;;;;;;;;;;4878882;29;20044;-60
2023/08/03 01:05:59;;;;;;;3.55;1.60;;;;;;;;;;4878131;29;20096;-60
2023/08/03 01:08:25;;;;;;;3.63;1.90;;;;;;;;;;4877778;29;20040;-60
2023/08/03 01:10:51;;;;;;;6.25;2.08;;;;;;;;;;4892191;29;20028;-60
2023/08/03 01:13:17;;;;;;;4.45;1.80;;;;;;;;;;4895778;29;20697;-59
2023/08/03 01:15:42;;;;;;;2.80;1.10;;;;;;;;;;4896212;29;20060;-59
2023/08/03 01:18:08;;;;;;;5.05;1.60;;;;;;;;;;4896433;29;20044;-59
2023/08/03 01:20:36;;;;;;;3.30;1.63;;;;;;;;;;4891357;29;20075;-59
2023/08/03 01:23:04;;;;;;;4.97;1.70;;;;;;;;;;4878306;29;20482;-59
2023/08/03 01:25:32;;;;;;;1.75;1.20;;;;;;;;;;4862722;29;20033;-60
2023/08/03 01:27:57;;;;;;;4.22;1.80;;;;;;;;;;4879199;29;20104;-59
2023/08/03 01:30:23;;;;;;;2.97;1.60;;;;;;;;;;4894477;29;20434;-59
2023/08/03 01:32:48;;;;;;;3.45;1.83;;;;;;;;;;4879835;29;20055;-59
2023/08/03 01:35:14;;;;;;;5.45;1.60;;;;;;;;;;4883471;29;20529;-58
2023/08/03 01:37:39;;;;;;;3.90;1.40;;;;;;;;;;4895601;29;20044;-59
2023/08/03 01:40:05;;;;;;;2.42;1.40;;;;;;;;;;4891185;29;20109;-60
2023/08/03 01:42:31;;;;;;;3.95;1.80;;;;;;;;;;4881646;29;20115;-59
2023/08/03 01:44:58;;;;;;;3.03;1.80;;;;;;;;;;4891948;29;20117;-59
2023/08/03 01:47:24;;;;;;;3.75;2.20;;;;;;;;;;4877528;29;20048;-59
2023/08/03 01:49:49;;;;;;;4.00;2.15;;;;;;;;;;4883401;29;20036;-60
2023/08/03 01:52:14;;;;;;;4.88;2.17;;;;;;;;;;4886446;29;20120;-60
2023/08/03 01:54:40;;;;;;;3.70;1.95;;;;;;;;;;4878231;29;20044;-59
2023/08/03 01:57:05;;;;;;;4.00;1.98;;;;;;;;;;4879422;29;20478;-60
2023/08/03 01:59:31;;;;;;;5.18;2.20;;;;;;;;;;4891207;29;20036;-60
2023/08/03 02:01:56;;;;;;;4.80;2.50;;;;;;;;;;4882609;29;20048;-59
2023/08/03 02:04:21;;;;;;;3.83;2.05;;;;;;;;;;4886137;29;20048;-59
2023/08/03 02:06:53;;;;;;;2.60;1.77;;;;;;;;;;4896365;29;20478;-59
2023/08/03 02:09:19;;;;;;;6.53;2.90;;;;;;;;;;4892355;29;20541;-60
2023/08/03 02:11:45;;;;;;;7.07;2.00;;;;;;;;;;4894535;29;20128;-59
2023/08/03 02:14:10;;;;;;;5.63;2.95;;;;;;;;;;4895947;29;20039;-59
2023/08/03 02:16:36;;;;;;;5.53;2.90;;;;;;;;;;4894984;29;20111;-59
2023/08/03 02:19:01;;;;;;;9.00;3.40;;;;;;;;;;4893110;29;20037;-59
2023/08/03 02:21:26;;;;;;;6.53;3.50;;;;;;;;;;4884768;29;20112;-59
2023/08/03 02:23:53;;;;;;;8.52;2.75;;;;;;;;;;4905159;29;20099;-58
2023/08/03 02:26:18;;;;;;;9.43;2.90;;;;;;;;;;4895397;29;20604;-59
2023/08/03 02:28:44;;;;;;;5.07;2.80;;;;;;;;;;4892099;29;20150;-58
2023/08/03 02:31:09;;;;;;;8.27;3.00;;;;;;;;;;4891452;29;20042;-57
2023/08/03 02:33:35;;;;;;;7.15;3.05;;;;;;;;;;4877520;29;21294;-59
2023/08/03 02:36:00;;;;;;;6.55;3.25;;;;;;;;;;4896220;29;20032;-58
2023/08/03 02:38:25;;;;;;;5.20;2.67;;;;;;;;;;4890446;29;20147;-59
2023/08/03 02:40:51;;;;;;;8.25;3.05;;;;;;;;;;4883446;29;20397;-59
2023/08/03 02:43:16;;;;;;;3.75;2.30;;;;;;;;;;4876601;29;20385;-59
2023/08/03 02:45:42;;;;;;;5.93;2.60;;;;;;;;;;4897687;29;20081;-59
2023/08/03 02:48:07;;;;;;;6.63;2.70;;;;;;;;;;4898051;29;20104;-59
2023/08/03 02:50:32;;;;;;;5.15;2.50;;;;;;;;;;4880972;29;20060;-59
2023/08/03 02:52:58;;;;;;;7.82;2.85;;;;;;;;;;4881265;29;20102;-59
2023/08/03 02:55:23;;;;;;;4.80;2.10;;;;;;;;;;4895552;29;20594;-59
2023/08/03 02:57:48;;;;;;;9.35;3.15;;;;;;;;;;4891102;29;20052;-57
2023/08/03 03:00:14;;;;;;;7.78;2.83;;;;;;;;;;4885753;29;20069;-58
2023/08/03 03:02:39;;;;;;;5.22;2.83;;;;;;;;;;4897740;29;20036;-60
2023/08/03 03:05:05;;;;;;;7.47;3.58;;;;;;;;;;4880702;29;20040;-61
2023/08/03 03:07:34;;;;;;;9.27;3.35;;;;;;;;;;4893150;29;20481;-60
2023/08/03 03:09:59;;;;;;;9.20;3.53;;;;;;;;;;4891960;29;20032;-60
2023/08/03 03:12:25;;;;;;;6.97;3.28;;;;;;;;;;4881594;29;20669;-61
2023/08/03 03:14:50;;;;;;;10.15;3.95;;;;;;;;;;4891889;29;20085;-60
2023/08/03 03:17:16;;;;;;;8.25;4.00;;;;;;;;;;4883382;29;20499;-60
2023/08/03 03:19:44;;;;;;;10.85;3.95;;;;;;;;;;4895997;29;20063;-60
2023/08/03 03:22:11;;;;;;;8.38;2.53;;;;;;;;;;4869021;29;20397;-59
2023/08/03 03:24:36;;;;;;;6.28;2.80;;;;;;;;;;4885261;29;20037;-58
2023/08/03 03:27:02;;;;;;;8.50;3.92;;;;;;;;;;4893090;29;20493;-59
2023/08/03 03:29:27;;;;;;;10.20;3.83;;;;;;;;;;4877701;29;20351;-59
2023/08/03 03:31:52;;;;;;;7.45;3.10;;;;;;;;;;4898125;29;20386;-59
2023/08/03 03:34:18;;;;;;;7.40;2.83;;;;;;;;;;4898357;29;20033;-60
2023/08/03 03:36:43;;;;;;;7.30;3.50;;;;;;;;;;4895380;29;20383;-60
2023/08/03 03:39:08;;;;;;;9.32;3.22;;;;;;;;;;4897099;29;20148;-59
2023/08/03 03:41:34;;;;;;;7.72;3.83;;;;;;;;;;4898021;29;20048;-60
2023/08/03 03:43:59;;;;;;;6.30;2.90;;;;;;;;;;4899238;29;20033;-59
2023/08/03 03:46:24;;;;;;;12.13;3.20;;;;;;;;;;4879615;29;20029;-60
2023/08/03 03:48:50;;;;;;;14.23;3.50;;;;;;;;;;4895572;29;20389;-59
2023/08/03 03:51:17;;;;;;;9.32;3.15;;;;;;;;;;4886293;29;20037;-59
2023/08/03 03:53:43;;;;;;;6.97;2.83;;;;;;;;;;4896528;29;20407;-59
2023/08/03 03:56:08;;;;;;;8.25;2.83;;;;;;;;;;4899954;29;20044;-59
2023/08/03 03:58:33;;;;;;;8.82;3.00;;;;;;;;;;4889547;29;20044;-59
2023/08/03 04:01:00;;;;;;;5.82;2.33;;;;;;;;;;4892066;29;20058;-60
2023/08/03 04:03:26;;;;;;;7.30;2.50;;;;;;;;;;4896496;29;20047;-61
2023/08/03 04:05:52;;;;;;;7.00;2.45;;;;;;;;;;4884155;29;20040;-60
2023/08/03 04:08:18;;;;;;;7.40;2.60;;;;;;;;;;4891760;29;20042;-60
2023/08/03 04:10:43;;;;;;;8.65;2.40;;;;;;;;;;4894965;29;20055;-60
2023/08/03 04:13:09;;;;;;;8.40;2.70;;;;;;;;;;4911393;29;20028;-60
2023/08/03 04:15:34;;;;;;;7.65;2.63;;;;;;;;;;4890989;29;20052;-60
2023/08/03 04:17:59;;;;;;;6.70;2.35;;;;;;;;;;4896448;29;20111;-60
2023/08/03 04:20:25;;;;;;;5.15;2.45;;;;;;;;;;4885892;29;20381;-60
2023/08/03 04:22:50;;;;;;;6.45;2.30;;;;;;;;;;4898540;29;20389;-59
2023/08/03 04:25:15;;;;;;;7.15;2.63;;;;;;;;;;4897624;29;20099;-60
2023/08/03 04:27:41;;;;;;;5.22;2.20;;;;;;;;;;4895941;29;20480;-59
2023/08/03 04:30:09;;;;;;;9.40;2.08;;;;;;;;;;4898608;29;20040;-60
2023/08/03 04:32:34;;;;;;;3.03;1.58;;;;;;;;;;4897439;29;20040;-60
2023/08/03 04:35:00;;;;;;;3.17;1.70;;;;;;;;;;4898174;29;20029;-60
2023/08/03 04:37:25;;;;;;;4.65;1.92;;;;;;;;;;4895940;29;20096;-60
2023/08/03 04:39:50;;;;;;;3.00;1.45;;;;;;;;;;4897894;29;20033;-60
2023/08/03 04:42:16;;;;;;;3.00;1.70;;;;;;;;;;4897373;29;20029;-60
2023/08/03 04:44:41;;;;;;;4.07;1.67;;;;;;;;;;4896734;29;20079;-60
2023/08/03 04:47:07;;;;;;;3.17;1.60;;;;;;;;;;4896000;29;20405;-59
2023/08/03 04:49:32;;;;;;;7.10;1.83;;;;;;;;;;4897162;29;20046;-59
2023/08/03 04:51:57;;;;;;;3.65;1.48;;;;;;;;;;4898059;29;20033;-59
2023/08/03 04:54:23;;;;;;;5.25;1.70;;;;;;;;;;4897031;29;20028;-59
2023/08/03 04:56:48;;;;;;;5.65;1.75;;;;;;;;;;4896879;29;20534;-59
2023/08/03 04:59:13;;;;;;;4.32;1.80;;;;;;;;;;4897136;29;20036;-59
2023/08/03 05:01:39;;;;;;;5.32;1.73;;;;;;;;;;4896425;29;20382;-59
2023/08/03 05:04:04;;;;;;;3.60;1.63;;;;;;;;;;4897973;29;20052;-59
2023/08/03 05:06:30;;;;;;;5.05;1.80;;;;;;;;;;4896965;29;20039;-59
2023/08/03 05:08:55;;;;;;;11.98;1.90;;;;;;;;;;4897313;29;20045;-59
2023/08/03 05:11:25;;;;;;;2.25;1.60;;;;;;;;;;4895672;29;20393;-59
2023/08/03 05:13:50;;;;;;;3.65;1.85;;;;;;;;;;4897617;29;20119;-59
2023/08/03 05:16:22;;;;;;;5.43;2.10;;;;;;;;;;4877338;29;20112;-67
2023/08/03 05:18:47;;;;;;;3.75;2.00;;;;;;;;;;4894028;29;21838;-63
2023/08/03 05:21:12;;;;;;;4.28;1.80;;;;;;;;;;4895880;29;20534;-62
2023/08/03 05:23:38;;;;;;;3.22;1.90;;;;;;;;;;4894575;29;20043;-61
2023/08/03 05:26:03;;;;;;;3.15;1.60;;;;;;;;;;4895753;29;20375;-63
2023/08/03 05:28:29;;;;;;;6.72;1.88;;;;;;;;;;4895263;29;20032;-63
2023/08/03 05:30:54;;;;;;;4.93;1.73;;;;;;;;;;4880232;29;20105;-63
2023/08/03 05:33:19;;;;;;;4.45;1.60;;;;;;;;;;4896369;29;20132;-64
2023/08/03 05:35:47;;;;;;;4.63;1.85;;;;;;;;;;4897159;29;20032;-64
2023/08/03 05:38:14;;;;;;;2.67;1.70;;;;;;;;;;4877254;29;20092;-67
2023/08/03 05:40:40;;;;;;;2.80;1.42;;;;;;;;;;4897143;29;20041;-63
2023/08/03 05:43:18;;;;;;;2.50;1.48;;;;;;;;;;4897046;29;20457;-64
2023/08/03 05:45:47;;;;;;;3.30;1.73;;;;;;;;;;4897257;29;20470;-63
2023/08/03 05:48:20;;;;;;;5.05;1.95;;;;;;;;;;4893882;29;20466;-63
2023/08/03 05:50:50;;;;;;;2.35;1.60;;;;;;;;;;4896724;29;20043;-65
2023/08/03 05:53:18;;;;;;;3.30;1.60;;;;;;;;;;4895840;29;20080;-64
2023/08/03 05:55:44;;;;;;;3.80;1.60;;;;;;;;;;4896901;29;20040;-63
2023/08/03 05:58:13;;;;;;;5.78;1.85;;;;;;;;;;4893017;29;20035;-63
2023/08/03 06:00:41;;;;;;;6.32;1.80;;;;;;;;;;4895649;29;20247;-62
2023/08/03 06:03:11;;;;;;;5.40;2.00;;;;;;;;;;4895608;29;20120;-63
2023/08/03 06:05:44;;;;;;;4.93;1.83;;;;;;;;;;4896486;29;20048;-62
2023/08/03 06:08:12;;;;;;;3.92;1.60;;;;;;;;;;4879709;29;20393;-62
2023/08/03 06:10:37;;;;;;;5.13;1.60;;;;;;;;;;4892317;29;20032;-63
2023/08/03 06:13:03;;;;;;;2.83;1.30;;;;;;;;;;4893214;29;20044;-64
2023/08/03 06:15:29;;;;;;;2.45;1.25;;;;;;;;;;4895533;29;20075;-63
2023/08/03 06:18:03;;;;;;;2.30;1.60;;;;;;;;;;4896587;29;20079;-63
2023/08/03 06:20:28;;;;;;;4.35;1.60;;;;;;;;;;4902807;29;20519;-63
2023/08/03 06:22:54;;;;;;;2.25;1.50;;;;;;;;;;4900365;29;20040;-62
2023/08/03 06:25:21;;;;;;;4.57;1.77;;;;;;;;;;4899848;29;20107;-62
2023/08/03 06:27:48;;;;;;;2.17;1.75;;;;;;;;;;4898581;29;20045;-60
2023/08/03 06:30:14;;;;;;;3.30;1.85;;;;;;;;;;4899823;29;20107;-62
2023/08/03 06:32:39;;;;;;;4.88;2.20;;;;;;;;;;4900428;29;20040;-62
2023/08/03 06:35:05;;;;;;;4.07;2.03;;;;;;;;;;4900707;29;20044;-61
2023/08/03 06:37:30;;;;;;;3.92;2.30;;;;;;;;;;4896944;29;20037;-60
2023/08/03 06:39:56;;;;;;;4.70;1.92;;;;;;;;;;4891039;29;20039;-62
2023/08/03 06:42:21;;;;;;;4.20;2.22;;;;;;;;;;4899224;29;20119;-62
2023/08/03 06:44:47;;;;;;;3.45;1.65;;;;;;;;;;4882929;29;20056;-62
2023/08/03 06:47:12;;;;;;;3.50;1.70;;;;;;;;;;4880932;29;20094;-62
2023/08/03 06:49:38;;;;;;;1.63;1.25;;;;;;;;;;4882528;29;20060;-61
2023/08/03 06:52:04;;;;;;;2.72;1.88;;;;;;;;;;4898258;29;20036;-61
2023/08/03 06:54:29;;;;;;;4.10;2.10;;;;;;;;;;4899216;29;20616;-61
2023/08/03 06:56:55;;;;;;;2.72;1.65;;;;;;;;;;4896601;29;20056;-62
2023/08/03 06:59:23;;;;;;;4.45;2.85;;;;;;;;;;4899089;29;20025;-62
2023/08/03 07:01:50;;;;;;;3.72;2.25;;;;;;;;;;4899530;29;20048;-63
2023/08/03 07:04:16;;;;;;;4.63;2.45;;;;;;;;;;4904606;29;20110;-62
2023/08/03 07:06:44;;;;;;;4.85;3.10;;;;;;;;;;4901906;29;20032;-63
2023/08/03 07:09:09;;;;;;;6.65;3.47;;;;;;;;;;4883481;29;20447;-61
2023/08/03 07:11:35;;;;;;;5.45;3.58;;;;;;;;;;4899460;29;20639;-61
2023/08/03 07:14:01;;;;;;;6.95;2.72;;;;;;;;;;4899420;29;20048;-63
2023/08/03 07:16:28;;;;;;;6.10;3.63;;;;;;;;;;4895506;29;20032;-61
2023/08/03 07:18:53;;;;;;;6.45;3.70;;;;;;;;;;4882039;29;20037;-61
2023/08/03 07:21:19;;;;;;;5.97;3.55;;;;;;;;;;4880760;29;20051;-62
2023/08/03 07:23:47;;;;;;;5.57;3.33;;;;;;;;;;4883225;29;20036;-61
2023/08/03 07:26:15;;;;;;;6.45;4.40;;;;;;;;;;4900631;29;20029;-62
2023/08/03 07:28:40;;;;;;;6.93;4.32;;;;;;;;;;4898222;29;20537;-62
2023/08/03 07:31:12;;;;;;;6.28;3.80;;;;;;;;;;4898296;29;20040;-61
2023/08/03 07:33:38;;;;;;;5.05;3.58;;;;;;;;;;4898226;29;20141;-63
2023/08/03 07:36:03;;;;;;;6.32;3.95;;;;;;;;;;4901827;29;20062;-61
2023/08/03 07:38:29;;;;;;;5.85;3.10;;;;;;;;;;4901660;29;20088;-61
2023/08/03 07:40:55;;;;;;;6.68;4.20;;;;;;;;;;4902153;29;20518;-62
2023/08/03 07:43:20;;;;;;;9.95;4.55;;;;;;;;;;4898951;29;20084;-63
2023/08/03 07:45:46;;;;;;;6.45;4.28;;;;;;;;;;4900530;29;20028;-62
2023/08/03 07:48:11;;;;;;;7.90;4.80;;;;;;;;;;4899206;29;20036;-64
2023/08/03 07:50:39;;;;;;;5.53;4.00;;;;;;;;;;4899314;29;20036;-63
2023/08/03 07:53:05;;;;;;;10.93;5.10;;;;;;;;;;4899055;29;20068;-63
2023/08/03 07:55:36;;;;;;;6.90;5.10;;;;;;;;;;4897375;29;20655;-63
2023/08/03 07:58:01;;;;;;;7.40;4.53;;;;;;;;;;4899511;29;20182;-63
2023/08/03 08:00:26;;;;;;;8.43;4.78;;;;;;;;;;4899133;29;20045;-63
2023/08/03 08:02:52;;;;;;;9.45;4.53;;;;;;;;;;4898570;29;20405;-62
2023/08/03 08:05:17;;;;;;;10.50;3.90;;;;;;;;;;4898900;29;20035;-62
2023/08/03 08:07:43;;;;;;;5.85;3.72;;;;;;;;;;4897238;29;20044;-62
2023/08/03 08:10:11;;;;;;;5.63;3.33;;;;;;;;;;4898778;29;20041;-62
2023/08/03 08:12:37;;;;;;;8.93;4.53;;;;;;;;;;4898430;29;20470;-63
2023/08/03 08:15:02;;;;;;;10.00;4.10;;;;;;;;;;4898693;29;20044;-62
2023/08/03 08:17:28;;;;;;;12.23;5.40;;;;;;;;;;4896945;29;20032;-62
2023/08/03 08:19:58;;;;;;;5.43;3.67;;;;;;;;;;4895298;29;20025;-62
2023/08/03 08:22:24;;;;;;;7.68;4.22;;;;;;;;;;4879021;29;20032;-62
2023/08/03 08:24:49;;;;;;;5.57;3.42;;;;;;;;;;4882633;29;20048;-61
2023/08/03 08:27:16;;;;;;;10.93;4.90;;;;;;;;;;4896080;29;20087;-63
2023/08/03 08:29:45;;;;;;;7.03;4.50;;;;;;;;;;4897663;29;20545;-62
2023/08/03 08:32:10;;;;;;;6.68;3.33;;;;;;;;;;4898684;29;20041;-62
2023/08/03 08:34:35;;;;;;;7.50;4.55;;;;;;;;;;4899695;29;20040;-62
2023/08/03 08:37:01;;;;;;;5.18;3.45;;;;;;;;;;4897567;29;20032;-62
2023/08/03 08:39:29;;;;;;;7.63;4.20;;;;;;;;;;4896122;29;20109;-62
2023/08/03 08:41:55;;;;;;;8.13;5.00;;;;;;;;;;4898231;29;20096;-63
2023/08/03 08:44:20;;;;;;;9.75;5.60;;;;;;;;;;4896850;29;20040;-63
2023/08/03 08:46:46;;;;;;;10.10;4.97;;;;;;;;;;4899244;29;20044;-62
2023/08/03 08:49:12;;;;;;;8.23;4.10;;;;;;;;;;4895581;29;20036;-63
2023/08/03 08:51:40;;;;;;;10.05;5.15;;;;;;;;;;4879356;29;20037;-63
2023/08/03 08:54:06;;;;;;;7.28;3.80;;;;;;;;;;4881268;29;20496;-63
2023/08/03 08:56:31;;;;;;;10.60;5.50;;;;;;;;;;4897417;29;20132;-62
2023/08/03 08:58:57;;;;;;;7.38;5.10;;;;;;;;;;4898225;29;20080;-63
2023/08/03 09:01:22;;;;;;;7.20;4.35;;;;;;;;;;4896681;29;20085;-62
2023/08/03 09:03:51;;;;;;;7.32;4.60;;;;;;;;;;4897769;29;20649;-63
2023/08/03 09:06:19;;;;;;;9.60;4.53;;;;;;;;;;4879903;29;20036;-64
2023/08/03 09:08:50;;;;;;;7.07;3.00;;;;;;;;;;4896596;29;20036;-60
2023/08/03 09:11:15;;;;;;;6.75;3.17;;;;;;;;;;4896568;29;20174;-59
2023/08/03 09:13:40;;;;;;;3.55;2.70;;;;;;;;;;4897703;29;20540;-62
2023/08/03 09:16:22;;;;;;;6.93;3.45;;;;;;;;;;4897376;29;20024;-63
2023/08/03 09:18:47;;;;;;;8.48;3.75;;;;;;;;;;4897587;29;20068;-63
2023/08/03 09:21:13;;;;;;;5.45;4.00;;;;;;;;;;4895778;29;20132;-65
2023/08/03 09:23:39;;;;;;;8.80;3.80;;;;;;;;;;4897173;29;20051;-64
2023/08/03 09:26:05;;;;;;;6.07;3.70;;;;;;;;;;4897261;29;20033;-64
2023/08/03 09:28:49;;;;;;;10.68;3.80;;;;;;;;;;4896389;29;20521;-64
2023/08/03 09:31:25;;;;;;;8.65;3.50;;;;;;;;;;4879971;29;20028;-63
2023/08/03 09:33:56;;;;;;;5.05;3.58;;;;;;;;;;4896388;29;20123;-63
2023/08/03 09:36:21;;;;;;;5.82;3.17;;;;;;;;;;4897196;29;20412;-61
2023/08/03 09:38:47;;;;;;;4.72;3.00;;;;;;;;;;4905887;29;20050;-61
2023/08/03 09:41:12;;;;;;;6.85;3.80;;;;;;;;;;4897112;29;20032;-62
2023/08/03 09:43:42;;;;;;;5.72;3.58;;;;;;;;;;4897006;29;20150;-61
2023/08/03 09:46:07;;;;;;;5.85;3.10;;;;;;;;;;4895468;29;20089;-63
2023/08/03 09:48:32;;;;;;;6.10;3.17;;;;;;;;;;4896106;29;20279;-63
2023/08/03 09:51:00;;;;;;;6.10;3.05;;;;;;;;;;4896820;29;20068;-63
2023/08/03 09:53:34;;;;;;;4.65;2.95;;;;;;;;;;4895838;29;20059;-62
2023/08/03 09:56:01;;;;;;;7.70;3.53;;;;;;;;;;4899662;29;20404;-63
2023/08/03 09:58:58;;;;;;;5.13;3.80;;;;;;;;;;4879451;29;20040;-63
2023/08/03 10:01:24;;;;;;;6.85;3.75;;;;;;;;;;4896139;29;20059;-63
2023/08/03 10:04:00;;;;;;;6.40;3.05;;;;;;;;;;4896618;29;20036;-63
2023/08/03 10:06:34;;;;;;;5.63;2.65;;;;;;;;;;4879043;29;20033;-63
2023/08/03 10:09:05;;;;;;;4.18;2.58;;;;;;;;;;4897078;29;20037;-63
2023/08/03 10:11:38;;;;;;;;;;;;;;;;;;4895838;29;20880;-64
2023/08/03 10:14:05;;;;;;;5.05;2.28;;;;;;;;;;4896921;29;19998;-64
2023/08/03 10:16:34;;;;;;;4.47;2.40;;;;;;;;;;4895613;29;20037;-61
2023/08/03 10:19:02;;;;;;;6.20;2.50;;;;;;;;;;4879828;29;20446;-61
2023/08/03 10:21:29;;;;;;;5.78;3.00;;;;;;;;;;4893083;29;20474;-63
2023/08/03 10:24:11;;;;;;;5.68;2.40;;;;;;;;;;4896781;29;20037;-64
2023/08/03 10:26:37;;;;;;;6.47;2.67;;;;;;;;;;4894124;29;20092;-64
2023/08/03 10:29:04;;;;;;;4.78;2.40;;;;;;;;;;4896713;29;20044;-61
2023/08/03 10:31:29;;;;;;;3.60;2.30;;;;;;;;;;4900844;29;20051;-61
2023/08/03 10:34:02;;;;;;;6.00;2.90;;;;;;;;;;4896186;29;20041;-62
2023/08/03 10:36:27;;;;;;;7.28;2.45;;;;;;;;;;4879072;29;20033;-61
2023/08/03 10:38:53;;;;;;;6.72;2.40;;;;;;;;;;4892866;29;20488;-61
2023/08/03 10:41:23;;;;;;;6.57;2.80;;;;;;;;;;4885120;29;20569;-61
2023/08/03 10:44:10;;;;;;;5.13;2.90;;;;;;;;;;4894136;29;20033;-60
2023/08/03 10:46:48;;;;;;;4.55;2.55;;;;;;;;;;4895647;29;20033;-60
2023/08/03 10:49:20;;;;;;;6.57;2.60;;;;;;;;;;4895661;29;20065;-59
2023/08/03 10:51:46;;;;;;;5.57;2.70;;;;;;;;;;4896909;29;20123;-61
2023/08/03 10:54:12;;;;;;;5.40;2.45;;;;;;;;;;4896191;29;20033;-61
2023/08/03 10:56:38;;;;;;;5.30;3.38;;;;;;;;;;4896262;29;20474;-61
2023/08/03 10:59:04;;;;;;;6.18;2.75;;;;;;;;;;4894416;29;20036;-63
2023/08/03 11:01:29;;;;;;;5.55;3.20;;;;;;;;;;4895936;29;20032;-61
2023/08/03 11:03:55;;;;;;;3.88;2.58;;;;;;;;;;4896631;29;20427;-62
2023/08/03 11:06:22;;;;;;;7.07;3.28;;;;;;;;;;4878400;29;20028;-61
2023/08/03 11:08:47;;;;;;;6.10;3.15;;;;;;;;;;4882727;29;20028;-63
2023/08/03 11:11:16;;;;;;;6.90;3.55;;;;;;;;;;4899705;29;20063;-62
2023/08/03 11:13:44;;;;;;;5.72;3.00;;;;;;;;;;4898043;29;20039;-60
2023/08/03 11:16:18;;;;;;;5.25;3.25;;;;;;;;;;4881999;29;20470;-61
2023/08/03 11:18:45;;;;;;;5.72;3.70;;;;;;;;;;4880623;29;20478;-62
2023/08/03 11:21:11;;;;;;;5.75;3.47;;;;;;;;;;4897219;29;20740;-64
2023/08/03 11:23:36;;;;;;;5.60;3.30;;;;;;;;;;4898936;29;20478;-65
2023/08/03 11:26:06;;;;;;;4.22;2.58;;;;;;;;;;4899325;29;20441;-64
2023/08/03 11:28:41;;;;;;;4.00;2.60;;;;;;;;;;4880051;29;20036;-65
2023/08/03 11:31:17;;;;;;;5.43;3.40;;;;;;;;;;4899437;29;20032;-63
2023/08/03 11:33:52;;;;;;;4.93;3.10;;;;;;;;;;4898105;29;20480;-64
2023/08/03 11:36:19;;;;;;;4.47;2.90;;;;;;;;;;4898995;29;20048;-63
2023/08/03 11:38:44;;;;;;;5.05;3.35;;;;;;;;;;4896871;29;20556;-63
2023/08/03 11:41:12;;;;;;;4.95;3.28;;;;;;;;;;4897155;29;20123;-64
2023/08/03 11:43:38;;;;;;;7.03;3.50;;;;;;;;;;4899016;29;20048;-65
2023/08/03 11:46:03;;;;;;;6.72;3.55;;;;;;;;;;4896629;29;20221;-63
2023/08/03 11:48:32;;;;;;;5.45;3.20;;;;;;;;;;4896383;29;20032;-66
2023/08/03 11:50:58;;;;;;;6.95;3.08;;;;;;;;;;4898426;29;20106;-64
2023/08/03 11:53:29;;;;;;;5.72;3.00;;;;;;;;;;4898116;29;20088;-64
2023/08/03 11:55:57;;;;;;;5.35;3.25;;;;;;;;;;4899556;29;20044;-61
2023/08/03 11:58:26;;;;;;;6.45;3.42;;;;;;;;;;4896945;29;20115;-63
2023/08/03 12:01:00;;;;;;;6.28;3.55;;;;;;;;;;4891688;29;20037;-63
2023/08/03 12:03:33;;;;;;;7.13;3.80;;;;;;;;;;4897249;29;20398;-63
2023/08/03 12:06:09;;;;;;;7.80;3.55;;;;;;;;;;4898297;29;20033;-63
2023/08/03 12:08:42;;;;;;;6.72;3.67;;;;;;;;;;4879245;29;20240;-65
2023/08/03 12:11:07;;;;;;;6.25;3.60;;;;;;;;;;4896149;29;20111;-63
2023/08/03 12:13:33;;;;;;;6.63;3.30;;;;;;;;;;4894801;29;20172;-66
2023/08/03 12:15:58;;;;;;;5.88;3.20;;;;;;;;;;4898477;29;20032;-64
2023/08/03 12:18:25;;;;;;;6.30;3.20;;;;;;;;;;4896575;29;20390;-65
2023/08/03 12:20:51;;;;;;;5.05;3.05;;;;;;;;;;4896565;29;20139;-64
2023/08/03 12:23:20;;;;;;;7.05;3.17;;;;;;;;;;4897736;29;20028;-67
2023/08/03 12:25:46;;;;;;;7.57;3.17;;;;;;;;;;4897657;29;20038;-66
2023/08/03 12:28:12;;;;;;;6.18;2.92;;;;;;;;;;4898122;29;20468;-67
2023/08/03 12:30:39;;;;;;;3.72;2.40;;;;;;;;;;4896940;29;20060;-63
2023/08/03 12:33:08;;;;;;;5.30;2.80;;;;;;;;;;4898179;29;20456;-65
2023/08/03 12:35:35;;;;;;;4.73;2.90;;;;;;;;;;4899456;29;20033;-65
2023/08/03 12:38:00;;;;;;;4.65;2.80;;;;;;;;;;4899045;29;20029;-65
2023/08/03 12:40:28;;;;;;;7.35;2.83;;;;;;;;;;4899718;29;20115;-61
2023/08/03 12:42:55;;;;;;;6.47;2.60;;;;;;;;;;4902229;29;20037;-64
2023/08/03 12:45:23;;;;;;;5.97;2.83;;;;;;;;;;4900138;29;20040;-63
2023/08/03 12:47:49;;;;;;;6.53;2.50;;;;;;;;;;4885454;29;20084;-61
2023/08/03 12:50:15;;;;;;;3.13;2.25;;;;;;;;;;4885186;29;20036;-62
2023/08/03 12:52:40;;;;;;;4.03;2.38;;;;;;;;;;4900379;29;20036;-62
2023/08/03 12:55:06;;;;;;;3.97;2.03;;;;;;;;;;4900197;29;20120;-64
2023/08/03 12:57:32;;;;;;;5.10;2.22;;;;;;;;;;4891481;29;20072;-63
2023/08/03 12:59:57;;;;;;;4.50;2.13;;;;;;;;;;4895577;29;20074;-60
2023/08/03 13:02:23;;;;;;;3.83;2.10;;;;;;;;;;4895858;29;20037;-61
2023/08/03 13:04:52;;;;;;;5.63;2.45;;;;;;;;;;4896718;29;20036;-63
2023/08/03 13:07:17;;;;;;;2.50;1.90;;;;;;;;;;4896058;29;20036;-63
2023/08/03 13:09:43;;;;;;;5.18;2.40;;;;;;;;;;4897404;29;20043;-60
2023/08/03 13:12:09;;;;;;;3.05;2.20;;;;;;;;;;4895559;29;20037;-60
2023/08/03 13:14:38;;;;;;;3.50;2.17;;;;;;;;;;4896486;29;20036;-62
2023/08/03 13:17:03;;;;;;;4.35;2.05;;;;;;;;;;4896978;29;20056;-61
2023/08/03 13:19:29;;;;;;;3.28;2.08;;;;;;;;;;4896308;29;20072;-61
2023/08/03 13:21:54;;;;;;;5.45;2.38;;;;;;;;;;4894938;29;20028;-61
2023/08/03 13:24:22;;;;;;;4.47;2.28;;;;;;;;;;4895144;29;20362;-61
2023/08/03 13:26:49;;;;;;;5.90;2.60;;;;;;;;;;4878249;29;20047;-61
2023/08/03 13:29:16;;;;;;;4.72;2.38;;;;;;;;;;4890499;29;20047;-62
2023/08/03 13:31:46;;;;;;;4.18;1.98;;;;;;;;;;4897417;29;20039;-61
2023/08/03 13:34:12;;;;;;;4.68;2.20;;;;;;;;;;4896284;29;20032;-61
2023/08/03 13:36:37;;;;;;;3.42;2.30;;;;;;;;;;4896564;29;20051;-61
2023/08/03 13:39:03;;;;;;;5.25;2.10;;;;;;;;;;4895982;29;20036;-61
2023/08/03 13:41:30;;;;;;;5.57;2.53;;;;;;;;;;4896129;29;20081;-61
2023/08/03 13:43:55;;;;;;;8.25;2.35;;;;;;;;;;4894662;29;20473;-60
2023/08/03 13:46:20;;;;;;;4.10;2.33;;;;;;;;;;4895683;29;20052;-61
2023/08/03 13:48:46;;;;;;;4.70;2.30;;;;;;;;;;4895944;29;20465;-59
2023/08/03 13:51:11;;;;;;;4.68;2.30;;;;;;;;;;4896923;29;20492;-59
2023/08/03 13:53:37;;;;;;;3.20;2.10;;;;;;;;;;4896332;29;20075;-60
2023/08/03 13:56:02;;;;;;;4.35;2.40;;;;;;;;;;4896746;29;20057;-61
2023/08/03 13:58:27;;;;;;;4.40;2.53;;;;;;;;;;4891266;29;20090;-60
2023/08/03 14:00:53;;;;;;;5.82;2.80;;;;;;;;;;4896041;29;20211;-60
2023/08/03 14:03:19;;;;;;;4.20;2.58;;;;;;;;;;4895962;29;20111;-60
2023/08/03 14:05:44;;;;;;;3.80;2.20;;;;;;;;;;4896919;29;20041;-60
2023/08/03 14:08:10;;;;;;;4.82;2.60;;;;;;;;;;4896772;29;20033;-59
2023/08/03 14:10:35;;;;;;;4.72;2.88;;;;;;;;;;4894500;29;20044;-61
2023/08/03 14:13:01;;;;;;;4.57;2.70;;;;;;;;;;4897340;29;20031;-61
2023/08/03 14:15:27;;;;;;;4.85;3.05;;;;;;;;;;4899837;29;20032;-59
2023/08/03 14:17:52;;;;;;;3.95;2.60;;;;;;;;;;4899234;29;20040;-59
2023/08/03 14:20:19;;;;;;;9.57;2.97;;;;;;;;;;4902250;29;20036;-60
2023/08/03 14:22:44;;;;;;;3.50;2.47;;;;;;;;;;4904586;29;20541;-59
2023/08/03 14:25:15;;;;;;;4.07;2.45;;;;;;;;;;4900128;29;20068;-59
2023/08/03 14:27:42;;;;;;;8.15;2.60;;;;;;;;;;4899243;29;20048;-59
2023/08/03 14:30:08;;;;;;;5.50;2.45;;;;;;;;;;4899031;29;20056;-61
2023/08/03 14:32:37;;;;;;;4.50;2.53;;;;;;;;;;4900488;29;20598;-60
2023/08/03 14:35:02;;;;;;;3.80;2.60;;;;;;;;;;4901051;29;20036;-59
2023/08/03 14:37:28;;;;;;;4.25;2.20;;;;;;;;;;4903074;29;20039;-59
2023/08/03 14:39:53;;;;;;;4.07;2.17;;;;;;;;;;4901794;29;20037;-60